createdAt,value
2022-08-11T00:00:12.435Z,15.81
2022-08-11T00:02:45.923Z,15.82
2022-08-11T00:05:17.585Z,15.71
2022-08-11T00:07:47.350Z,15.85
2022-08-11T00:10:18.982Z,15.69
2022-08-11T00:12:54.135Z,15.78
2022-08-11T00:15:26.305Z,15.74
2022-08-11T00:18:01.043Z,15.76
2022-08-11T00:20:33.632Z,15.63
2022-08-11T00:23:07.254Z,15.71
2022-08-11T00:25:41.652Z,15.71
2022-08-11T00:28:30.455Z,15.67
2022-08-11T00:31:04.693Z,15.65
2022-08-11T00:33:41.129Z,15.63
2022-08-11T00:36:23.463Z,15.63
2022-08-11T00:38:57.399Z,15.62
2022-08-11T00:41:38.163Z,15.67
2022-08-11T00:44:34.385Z,15.64
2022-08-11T00:47:17.153Z,15.62
2022-08-11T00:50:04.780Z,15.64
2022-08-11T00:53:00.064Z,15.62
2022-08-11T00:56:01.723Z,15.61
2022-08-11T00:59:32.215Z,15.62
2022-08-11T01:02:16.562Z,15.56
2022-08-11T01:05:30.338Z,15.54
2022-08-11T01:08:43.009Z,15.49
2022-08-11T01:11:55.994Z,15.44
2022-08-11T01:15:02.706Z,15.46
2022-08-11T01:18:08.836Z,15.48
2022-08-11T01:21:24.728Z,15.35
2022-08-11T01:24:31.930Z,15.34
2022-08-11T01:27:40.366Z,15.27
2022-08-11T01:30:49.922Z,15.31
2022-08-11T01:33:49.282Z,15.28
2022-08-11T01:36:58.776Z,15.33
2022-08-11T01:40:13.676Z,15.34
2022-08-11T01:43:33.449Z,15.22
2022-08-11T01:46:08.735Z,15.13
2022-08-11T01:48:44.716Z,15.19
2022-08-11T01:51:44.727Z,15.13
2022-08-11T01:54:26.626Z,15.01
2022-08-11T01:57:05.157Z,14.99
2022-08-11T01:59:39.442Z,15.08
2022-08-11T02:02:45.521Z,15.10
2022-08-11T02:05:28.008Z,15.15
2022-08-11T02:08:04.992Z,15.18
2022-08-11T02:10:59.469Z,15.21
2022-08-11T02:13:56.144Z,15.15
2022-08-11T02:16:39.239Z,15.13
2022-08-11T02:19:35.958Z,15.03
2022-08-11T02:22:21.641Z,15.09
2022-08-11T02:25:17.610Z,15.18
2022-08-11T02:28:08.502Z,15.21
2022-08-11T02:30:44.326Z,14.96
2022-08-11T02:33:24.639Z,15.21
2022-08-11T02:36:01.858Z,15.10
2022-08-11T02:38:37.139Z,15.14
2022-08-11T02:41:25.486Z,15.13
2022-08-11T02:44:12.477Z,15.27
2022-08-11T02:46:53.763Z,15.32
2022-08-11T02:50:00.093Z,15.18
2022-08-11T02:52:44.924Z,15.28
2022-08-11T02:55:55.763Z,15.25
2022-08-11T02:58:22.031Z,15.24
2022-08-11T03:01:11.044Z,15.24
2022-08-11T03:03:50.885Z,15.26
2022-08-11T03:06:31.649Z,15.24
2022-08-11T03:09:08.192Z,15.28
2022-08-11T03:12:13.336Z,15.26
2022-08-11T03:15:04.754Z,15.24
2022-08-11T03:17:43.721Z,15.30
2022-08-11T03:20:33.319Z,15.31
2022-08-11T03:23:19.987Z,15.33
2022-08-11T03:25:57.431Z,15.35
2022-08-11T03:28:35.589Z,15.33
2022-08-11T03:31:18.821Z,15.25
2022-08-11T03:34:07.325Z,15.37
2022-08-11T03:37:17.117Z,15.45
2022-08-11T03:40:01.908Z,15.46
2022-08-11T03:42:42.337Z,15.49
2022-08-11T03:45:24.540Z,15.49
2022-08-11T03:48:11.112Z,15.51
2022-08-11T03:51:09.914Z,15.56
2022-08-11T03:53:57.682Z,15.59
2022-08-11T03:57:05.072Z,15.64
2022-08-11T04:00:09.775Z,15.73
2022-08-11T04:03:07.655Z,15.97
2022-08-11T04:06:34.518Z,16.27
2022-08-11T04:09:52.649Z,16.47
2022-08-11T04:13:01.805Z,16.51
2022-08-11T04:16:11.085Z,16.97
2022-08-11T04:19:18.325Z,17.07
2022-08-11T04:22:10.248Z,17.15
2022-08-11T04:24:56.258Z,17.34
2022-08-11T04:28:02.726Z,17.51
2022-08-11T04:30:46.947Z,17.73
2022-08-11T04:33:43.207Z,17.81
2022-08-11T04:36:55.827Z,17.88
2022-08-11T04:39:45.275Z,18.00
2022-08-11T04:42:55.326Z,18.17
2022-08-11T04:45:44.396Z,18.09
2022-08-11T04:48:53.851Z,18.06
2022-08-11T04:52:37.924Z,18.09
2022-08-11T04:55:47.472Z,18.21
2022-08-11T04:58:37.603Z,18.22
2022-08-11T05:01:37.382Z,18.35
2022-08-11T05:04:51.203Z,18.44
2022-08-11T05:07:54.432Z,18.42
2022-08-11T05:10:45.316Z,18.33
2022-08-11T05:13:37.196Z,18.35
2022-08-11T05:16:26.795Z,18.38
2022-08-11T05:19:10.090Z,18.28
2022-08-11T05:21:54.846Z,18.20
2022-08-11T05:24:45.634Z,18.25
2022-08-11T05:27:31.130Z,18.26
2022-08-11T05:30:17.946Z,18.41
2022-08-11T05:33:11.792Z,18.37
2022-08-11T05:36:02.617Z,18.30
2022-08-11T05:38:48.829Z,18.31
2022-08-11T05:41:35.925Z,18.27
2022-08-11T05:44:22.469Z,18.19
2022-08-11T05:47:06.205Z,18.15
2022-08-11T05:49:49.695Z,18.22
2022-08-11T05:52:35.295Z,18.30
2022-08-11T05:55:25.312Z,18.46
2022-08-11T05:57:59.253Z,18.43
2022-08-11T06:00:32.036Z,18.34
2022-08-11T06:03:06.989Z,18.54
2022-08-11T06:05:43.458Z,18.59
2022-08-11T06:08:15.529Z,18.65
2022-08-11T06:10:49.766Z,18.73
2022-08-11T06:13:20.115Z,18.75
2022-08-11T06:15:55.501Z,18.83
2022-08-11T06:18:25.539Z,18.86
2022-08-11T06:20:56.817Z,18.78
2022-08-11T06:23:26.917Z,19.08
2022-08-11T06:25:56.680Z,19.09
2022-08-11T06:28:34.676Z,19.17
2022-08-11T06:31:14.588Z,19.27
2022-08-11T06:33:55.992Z,19.36
2022-08-11T06:36:33.895Z,19.45
2022-08-11T06:39:15.534Z,19.51
2022-08-11T06:41:48.850Z,19.65
2022-08-11T06:44:25.243Z,19.68
2022-08-11T06:47:00.654Z,19.69
2022-08-11T06:49:50.422Z,19.74
2022-08-11T06:52:35.264Z,19.87
2022-08-11T06:55:55.632Z,19.90
2022-08-11T06:58:12.908Z,19.96
2022-08-11T07:00:43.380Z,19.99
2022-08-11T07:03:19.178Z,20.04
2022-08-11T07:05:54.257Z,20.12
2022-08-11T07:09:10.061Z,20.17
2022-08-11T07:12:32.760Z,20.25
2022-08-11T07:16:10.718Z,20.36
2022-08-11T07:18:37.601Z,20.48
2022-08-11T07:22:00.411Z,20.55
2022-08-11T07:24:59.473Z,20.55
2022-08-11T07:27:52.033Z,20.76
2022-08-11T07:30:21.456Z,20.80
2022-08-11T07:32:54.614Z,20.87
2022-08-11T07:35:32.171Z,20.87
2022-08-11T07:38:07.844Z,20.85
2022-08-11T07:40:38.313Z,20.88
2022-08-11T07:43:09.292Z,20.93
2022-08-11T07:45:56.977Z,21.00
2022-08-11T07:48:39.291Z,21.01
2022-08-11T07:51:24.148Z,21.11
2022-08-11T07:53:58.302Z,21.12
2022-08-11T07:56:54.751Z,21.20
2022-08-11T08:00:03.760Z,21.33
2022-08-11T08:02:41.901Z,21.50
2022-08-11T08:05:24.254Z,21.63
2022-08-11T08:08:08.509Z,21.70
2022-08-11T08:10:53.314Z,21.72
2022-08-11T08:13:35.599Z,21.74
2022-08-11T08:16:17.995Z,21.84
2022-08-11T08:18:48.208Z,22.04
2022-08-11T08:21:17.544Z,22.08
2022-08-11T08:23:53.078Z,22.05
2022-08-11T08:26:39.084Z,21.98
2022-08-11T08:29:22.772Z,21.99
2022-08-11T08:31:52.983Z,22.08
2022-08-11T08:34:23.217Z,22.25
2022-08-11T08:36:53.507Z,22.50
2022-08-11T08:39:25.393Z,22.67
2022-08-11T08:41:57.946Z,22.52
2022-08-11T08:44:39.106Z,22.28
2022-08-11T08:47:14.515Z,22.29
2022-08-11T08:49:52.426Z,22.24
2022-08-11T08:52:30.958Z,22.21
2022-08-11T08:55:21.769Z,22.31
2022-08-11T08:57:54.218Z,22.39
2022-08-11T09:00:25.162Z,22.52
2022-08-11T09:02:54.892Z,22.76
2022-08-11T09:05:26.059Z,22.68
2022-08-11T09:07:57.678Z,22.71
2022-08-11T09:10:32.584Z,22.73
2022-08-11T09:13:02.887Z,22.58
2022-08-11T09:15:32.393Z,22.58
2022-08-11T09:18:05.543Z,22.46
2022-08-11T09:20:38.161Z,22.46
2022-08-11T09:24:07.789Z,22.43
2022-08-11T09:26:30.573Z,22.28
2022-08-11T09:29:02.525Z,22.21
2022-08-11T09:31:38.999Z,22.28
2022-08-11T09:34:11.662Z,22.43
2022-08-11T09:36:56.061Z,22.67
2022-08-11T09:39:42.607Z,22.98
2022-08-11T09:42:16.285Z,23.04
2022-08-11T09:44:51.851Z,23.13
2022-08-11T09:47:27.496Z,23.08
2022-08-11T09:50:01.211Z,23.03
2022-08-11T09:52:38.407Z,22.96
2022-08-11T09:55:10.619Z,23.00
2022-08-11T09:58:00.403Z,23.00
2022-08-11T10:00:36.868Z,22.85
2022-08-11T10:03:09.930Z,22.83
2022-08-11T10:05:58.967Z,22.89
2022-08-11T10:08:32.832Z,22.85
2022-08-11T10:11:03.278Z,22.86
2022-08-11T10:14:33.490Z,22.89
2022-08-11T10:16:45.324Z,22.93
2022-08-11T10:19:14.939Z,22.91
2022-08-11T10:22:06.961Z,22.95
2022-08-11T10:24:50.094Z,22.85
2022-08-11T10:27:19.812Z,22.73
2022-08-11T10:30:06.051Z,22.69
2022-08-11T10:32:58.832Z,22.65
2022-08-11T10:35:31.428Z,22.61
2022-08-11T10:38:06.352Z,22.48
2022-08-11T10:40:40.842Z,22.66
2022-08-11T10:43:13.054Z,22.82
2022-08-11T10:46:10.032Z,22.97
2022-08-11T10:48:40.909Z,22.98
2022-08-11T10:51:42.804Z,23.12
2022-08-11T10:54:20.656Z,23.25
2022-08-11T10:57:03.084Z,23.31
2022-08-11T10:59:35.701Z,23.31
2022-08-11T11:02:07.749Z,23.26
2022-08-11T11:04:54.466Z,23.21
2022-08-11T11:07:27.118Z,23.21
2022-08-11T11:09:59.927Z,23.20
2022-08-11T11:12:46.650Z,23.13
2022-08-11T11:15:32.980Z,23.13
2022-08-11T11:18:09.048Z,23.06
2022-08-11T11:20:47.403Z,23.08
2022-08-11T11:23:21.741Z,23.06
2022-08-11T11:26:15.114Z,23.18
2022-08-11T11:29:05.166Z,23.23
2022-08-11T11:31:48.011Z,23.32
2022-08-11T11:34:28.811Z,23.41
2022-08-11T11:37:00.336Z,23.42
2022-08-11T11:39:30.809Z,23.63
2022-08-11T11:42:03.914Z,23.53
2022-08-11T11:44:35.816Z,23.63
2022-08-11T11:47:06.483Z,23.65
2022-08-11T11:49:39.149Z,23.65
2022-08-11T11:52:10.418Z,23.66
2022-08-11T11:54:41.413Z,23.64
2022-08-11T11:57:23.878Z,23.56
2022-08-11T12:00:07.414Z,23.48
2022-08-11T12:02:39.901Z,23.49
2022-08-11T12:05:14.466Z,23.49
2022-08-11T12:08:05.290Z,23.43
2022-08-11T12:10:45.540Z,23.41
2022-08-11T12:13:28.364Z,23.43
2022-08-11T12:16:35.069Z,23.38
2022-08-11T12:18:53.474Z,23.36
2022-08-11T12:21:26.265Z,23.45
2022-08-11T12:24:11.162Z,23.49
2022-08-11T12:27:01.403Z,23.46
2022-08-11T12:29:45.318Z,23.38
2022-08-11T12:32:14.624Z,23.53
2022-08-11T12:34:43.947Z,23.37
2022-08-11T12:37:18.261Z,23.38
2022-08-11T12:40:16.263Z,23.37
2022-08-11T12:43:08.362Z,23.50
2022-08-11T12:45:57.863Z,23.51
2022-08-11T12:49:00.766Z,23.52
2022-08-11T12:57:49.215Z,23.37
2022-08-11T13:00:33.004Z,23.36
2022-08-11T13:03:16.321Z,23.36
2022-08-11T13:05:49.199Z,23.42
2022-08-11T13:08:19.653Z,23.49
2022-08-11T13:11:19.610Z,23.62
2022-08-11T13:13:57.411Z,23.67
2022-08-11T13:16:30.948Z,23.73
2022-08-11T13:19:14.938Z,23.76
2022-08-11T13:21:45.196Z,23.77
2022-08-11T13:24:14.518Z,23.77
2022-08-11T13:26:48.737Z,23.74
2022-08-11T13:29:24.846Z,23.71
2022-08-11T13:31:59.306Z,23.74
2022-08-11T13:38:17.387Z,23.82
2022-08-11T13:40:13.326Z,23.81
2022-08-11T13:42:42.547Z,23.91
2022-08-11T13:45:14.567Z,23.82
2022-08-11T13:47:44.998Z,23.80
2022-08-11T13:50:16.735Z,23.76
2022-08-11T13:52:50.131Z,23.65
2022-08-11T13:55:51.114Z,23.70
2022-08-11T13:58:20.746Z,23.78
2022-08-11T14:02:03.620Z,23.81
2022-08-11T14:04:30.806Z,23.82
2022-08-11T14:06:52.694Z,23.80
2022-08-11T14:09:28.070Z,23.80
2022-08-11T14:12:21.518Z,23.81
2022-08-11T14:15:08.150Z,23.83
2022-08-11T14:17:47.981Z,23.80
2022-08-11T14:20:38.541Z,23.78
2022-08-11T14:23:11.239Z,23.78
2022-08-11T14:26:05.452Z,23.76
2022-08-11T14:28:44.470Z,23.76
2022-08-11T14:31:16.341Z,23.77
2022-08-11T14:33:59.949Z,23.80
2022-08-11T14:36:34.522Z,23.89
2022-08-11T14:39:07.805Z,23.79
2022-08-11T14:42:10.512Z,23.81
2022-08-11T14:44:55.373Z,23.77
2022-08-11T14:47:26.742Z,23.72
2022-08-11T14:50:10.733Z,23.65
2022-08-11T14:52:50.074Z,23.62
2022-08-11T14:55:33.748Z,23.48
2022-08-11T14:58:04.117Z,23.56
2022-08-11T15:00:36.298Z,23.56
2022-08-11T15:03:10.041Z,23.52
2022-08-11T15:05:56.522Z,23.54
2022-08-11T15:08:43.300Z,23.54
2022-08-11T15:11:26.587Z,23.58
2022-08-11T15:13:56.913Z,23.56
2022-08-11T15:16:40.463Z,23.51
2022-08-11T15:19:10.437Z,23.55
2022-08-11T15:22:06.635Z,23.54
2022-08-11T15:24:36.486Z,23.72
2022-08-11T15:27:24.751Z,23.73
2022-08-11T15:30:20.903Z,23.70
2022-08-11T15:33:15.296Z,23.54
2022-08-11T15:35:58.009Z,23.52
2022-08-11T15:38:31.004Z,23.50
2022-08-11T15:41:15.739Z,23.52
2022-08-11T15:44:04.415Z,23.64
2022-08-11T15:46:42.008Z,23.42
2022-08-11T15:49:22.158Z,23.30
2022-08-11T15:52:02.051Z,23.26
2022-08-11T15:54:39.662Z,23.20
2022-08-11T15:57:30.478Z,23.14
2022-08-11T16:00:24.413Z,23.21
2022-08-11T16:03:12.427Z,23.37
2022-08-11T16:05:52.926Z,23.55
2022-08-11T16:08:32.596Z,23.63
2022-08-11T16:11:07.779Z,23.69
2022-08-11T16:13:54.153Z,23.73
2022-08-11T16:16:23.779Z,23.72
2022-08-11T16:19:41.520Z,23.70
2022-08-11T16:22:13.589Z,23.70
2022-08-11T16:27:01.428Z,23.67
2022-08-11T16:27:42.694Z,23.64
2022-08-11T16:30:15.045Z,23.59
2022-08-11T16:32:49.013Z,23.51
2022-08-11T16:35:35.746Z,23.39
2022-08-11T16:38:19.419Z,23.39
2022-08-11T16:40:51.102Z,23.35
2022-08-11T16:43:37.871Z,23.27
2022-08-11T16:46:21.999Z,23.18
2022-08-11T16:48:53.255Z,22.95
2022-08-11T16:51:24.176Z,22.79
2022-08-11T16:54:04.397Z,22.67
2022-08-11T16:56:39.286Z,22.63
2022-08-11T16:59:14.408Z,22.46
2022-08-11T17:01:46.581Z,22.32
2022-08-11T17:04:35.934Z,21.92
2022-08-11T17:07:23.453Z,21.94
2022-08-11T17:10:39.360Z,21.68
2022-08-11T17:13:23.331Z,21.54
2022-08-11T17:16:09.105Z,21.36
2022-08-11T17:18:45.086Z,21.25
2022-08-11T17:21:19.462Z,21.10
2022-08-11T17:23:51.929Z,21.09
2022-08-11T17:26:25.023Z,20.93
2022-08-11T17:28:58.645Z,20.85
2022-08-11T17:31:45.385Z,20.76
2022-08-11T17:34:31.935Z,20.66
2022-08-11T17:37:01.999Z,20.50
2022-08-11T17:39:35.377Z,20.34
2022-08-11T17:42:18.451Z,20.24
2022-08-11T17:45:02.722Z,20.15
2022-08-11T17:47:48.591Z,20.16
2022-08-11T17:50:19.094Z,20.15
2022-08-11T17:53:02.873Z,19.99
2022-08-11T17:55:52.120Z,20.02
2022-08-11T17:58:36.499Z,19.98
2022-08-11T18:01:09.372Z,19.85
2022-08-11T18:03:57.321Z,19.87
2022-08-11T18:06:33.587Z,19.84
2022-08-11T18:09:20.731Z,19.81
2022-08-11T18:12:10.236Z,19.78
2022-08-11T18:14:56.911Z,20.02
2022-08-11T18:17:39.433Z,20.05
2022-08-11T18:20:26.687Z,20.01
2022-08-11T18:23:11.281Z,20.12
2022-08-11T18:25:58.790Z,20.20
2022-08-11T18:28:47.615Z,20.09
2022-08-11T18:31:31.754Z,20.00
2022-08-11T18:34:19.312Z,19.90
2022-08-11T18:37:07.649Z,19.84
2022-08-11T18:39:57.363Z,19.66
2022-08-11T18:42:42.339Z,19.48
2022-08-11T18:45:28.825Z,19.58
2022-08-11T18:48:18.595Z,19.72
2022-08-11T18:51:36.289Z,20.03
2022-08-11T18:54:11.870Z,20.24
2022-08-11T18:56:56.607Z,20.31
2022-08-11T18:59:46.050Z,20.22
2022-08-11T19:02:31.483Z,20.41
2022-08-11T19:05:16.804Z,20.34
2022-08-11T19:08:03.532Z,20.39
2022-08-11T19:10:48.592Z,20.38
2022-08-11T19:13:34.559Z,20.36
2022-08-11T19:16:19.167Z,20.37
2022-08-11T19:19:02.606Z,20.32
2022-08-11T19:21:45.861Z,20.27
2022-08-11T19:24:29.590Z,20.22
2022-08-11T19:27:14.892Z,20.11
2022-08-11T19:30:04.833Z,20.07
2022-08-11T19:32:57.104Z,20.10
2022-08-11T19:35:40.076Z,20.07
2022-08-11T19:38:23.692Z,20.03
2022-08-11T19:41:07.107Z,20.03
2022-08-11T19:43:54.263Z,20.03
2022-08-11T19:46:45.471Z,19.97
2022-08-11T19:49:29.381Z,19.83
2022-08-11T19:52:12.173Z,19.78
2022-08-11T19:54:57.037Z,19.82
2022-08-11T19:57:40.534Z,19.83
2022-08-11T20:00:29.970Z,19.73
2022-08-11T20:03:13.697Z,19.66
2022-08-11T20:05:59.647Z,19.62
2022-08-11T20:08:45.024Z,19.45
2022-08-11T20:11:29.915Z,19.43
2022-08-11T20:14:14.154Z,19.33
2022-08-11T20:17:02.351Z,19.01
2022-08-11T20:19:56.143Z,18.73
2022-08-11T20:22:40.122Z,18.48
2022-08-11T20:25:25.120Z,18.31
2022-08-11T20:28:08.386Z,18.19
2022-08-11T20:30:51.741Z,17.92
2022-08-11T20:33:37.787Z,17.80
2022-08-11T20:36:22.523Z,17.99
2022-08-11T20:39:05.497Z,18.15
2022-08-11T20:41:58.802Z,18.27
2022-08-11T20:44:43.626Z,18.43
2022-08-11T20:47:26.582Z,18.41
2022-08-11T20:50:19.414Z,18.59
2022-08-11T20:53:04.979Z,18.63
2022-08-11T20:55:53.215Z,18.44
2022-08-11T20:59:11.245Z,18.38
2022-08-11T21:01:41.092Z,18.45
2022-08-11T21:04:23.814Z,18.30
2022-08-11T21:07:10.055Z,18.17
2022-08-11T21:10:01.069Z,18.17
2022-08-11T21:12:55.549Z,18.15
2022-08-11T21:15:47.578Z,18.05
2022-08-11T21:18:45.372Z,18.09
2022-08-11T21:21:29.797Z,18.06
2022-08-11T21:24:33.489Z,18.11
2022-08-11T21:27:21.748Z,18.07
2022-08-11T21:30:08.035Z,18.09
2022-08-11T21:32:51.547Z,17.98
2022-08-11T21:35:34.538Z,17.86
2022-08-11T21:38:18.979Z,17.99
2022-08-11T21:41:05.717Z,17.90
2022-08-11T21:43:48.745Z,17.88
2022-08-11T21:46:36.347Z,17.84
2022-08-11T21:49:21.493Z,17.80
2022-08-11T21:52:03.795Z,17.84
2022-08-11T21:54:46.915Z,17.84
2022-08-11T21:57:31.843Z,17.89
2022-08-11T22:00:14.735Z,17.85
2022-08-11T22:03:00.595Z,17.78
2022-08-11T22:05:47.899Z,17.61
2022-08-11T22:08:30.433Z,17.55
2022-08-11T22:11:13.279Z,17.52
2022-08-11T22:14:05.835Z,17.52
2022-08-11T22:16:50.136Z,17.46
2022-08-11T22:19:36.097Z,17.42
2022-08-11T22:22:19.331Z,17.36
2022-08-11T22:25:08.429Z,17.25
2022-08-11T22:27:59.040Z,17.20
2022-08-11T22:30:43.681Z,17.10
2022-08-11T22:33:28.993Z,17.01
2022-08-11T22:36:12.614Z,16.89
2022-08-11T22:38:56.529Z,16.81
2022-08-11T22:41:39.427Z,16.71
2022-08-11T22:44:22.015Z,16.70
2022-08-11T22:47:08.627Z,16.57
2022-08-11T22:49:57.697Z,16.36
2022-08-11T22:52:41.372Z,16.23
2022-08-11T22:55:25.042Z,16.12
2022-08-11T22:58:08.411Z,16.05
2022-08-11T23:00:51.603Z,16.06
2022-08-11T23:03:38.158Z,16.12
2022-08-11T23:06:21.802Z,16.25
2022-08-11T23:09:05.716Z,16.40
2022-08-11T23:12:07.250Z,16.52
2022-08-11T23:14:53.242Z,16.53
2022-08-11T23:17:35.674Z,16.41
2022-08-11T23:20:30.263Z,16.31
2022-08-11T23:23:15.919Z,16.25
2022-08-11T23:26:00.238Z,16.27
2022-08-11T23:28:47.194Z,16.17
2022-08-11T23:31:50.405Z,16.08
2022-08-11T23:35:02.459Z,16.12
2022-08-11T23:37:40.894Z,16.03
2022-08-11T23:40:25.166Z,15.88
2022-08-11T23:43:08.599Z,15.75
2022-08-11T23:45:52.273Z,15.69
2022-08-11T23:48:34.774Z,15.74
2022-08-11T23:51:18.261Z,15.90
2022-08-11T23:54:08.076Z,16.05
2022-08-11T23:56:51.019Z,16.10
2022-08-11T23:59:34.335Z,16.13
